sensor_id;sensor_type;location;lat;lon;timestamp;P1;durP1;ratioP1;P2;durP2;ratioP2
30635;SDS011;17400;52.392;9.750;2023-01-10T00:00:00;11.63;;;5.60;;
30635;SDS011;17400;52.392;9.750;2023-01-10T00:02:27;10.65;;;5.35;;
30635;SDS011;17400;52.392;9.750;2023-01-10T00:04:55;15.40;;;5.13;;
30635;SDS011;17400;52.392;9.750;2023-01-10T00:07:24;9.60;;;4.68;;
30635;SDS011;17400;52.392;9.750;2023-01-10T00:09:52;8.23;;;4.85;;
30635;SDS011;17400;52.392;9.750;2023-01-10T00:12:19;8.98;;;4.70;;
30635;SDS011;17400;52.392;9.750;2023-01-10T00:15:05;9.95;;;4.47;;
30635;SDS011;17400;52.392;9.750;2023-01-10T00:17:33;11.43;;;5.07;;
30635;SDS011;17400;52.392;9.750;2023-01-10T00:20:01;6.40;;;4.40;;
30635;SDS011;17400;52.392;9.750;2023-01-10T00:22:30;11.52;;;5.68;;
30635;SDS011;17400;52.392;9.750;2023-01-10T00:24:57;8.93;;;4.43;;
30635;SDS011;17400;52.392;9.750;2023-01-10T00:27:25;8.90;;;4.88;;
30635;SDS011;17400;52.392;9.750;2023-01-10T00:29:52;11.05;;;4.78;;
30635;SDS011;17400;52.392;9.750;2023-01-10T00:32:21;8.95;;;5.68;;
30635;SDS011;17400;52.392;9.750;2023-01-10T00:34:49;11.00;;;5.55;;
30635;SDS011;17400;52.392;9.750;2023-01-10T00:37:17;11.90;;;6.03;;
30635;SDS011;17400;52.392;9.750;2023-01-10T00:39:46;13.02;;;5.45;;
30635;SDS011;17400;52.392;9.750;2023-01-10T00:42:14;9.85;;;5.47;;
30635;SDS011;17400;52.392;9.750;2023-01-10T00:44:59;11.68;;;5.38;;
30635;SDS011;17400;52.392;9.750;2023-01-10T00:47:27;12.55;;;6.22;;
30635;SDS011;17400;52.392;9.750;2023-01-10T00:49:54;18.02;;;6.25;;
30635;SDS011;17400;52.392;9.750;2023-01-10T00:52:22;13.23;;;6.65;;
30635;SDS011;17400;52.392;9.750;2023-01-10T00:54:51;19.02;;;6.53;;
30635;SDS011;17400;52.392;9.750;2023-01-10T00:57:18;13.48;;;6.38;;
30635;SDS011;17400;52.392;9.750;2023-01-10T00:59:46;11.80;;;6.43;;
30635;SDS011;17400;52.392;9.750;2023-01-10T01:02:13;12.55;;;6.25;;
30635;SDS011;17400;52.392;9.750;2023-01-10T01:04:41;9.80;;;6.03;;
30635;SDS011;17400;52.392;9.750;2023-01-10T01:07:09;14.10;;;7.50;;
30635;SDS011;17400;52.392;9.750;2023-01-10T01:09:37;10.02;;;6.30;;
30635;SDS011;17400;52.392;9.750;2023-01-10T01:12:26;13.75;;;6.25;;
30635;SDS011;17400;52.392;9.750;2023-01-10T01:14:53;11.63;;;6.28;;
30635;SDS011;17400;52.392;9.750;2023-01-10T01:17:21;13.77;;;7.15;;
30635;SDS011;17400;52.392;9.750;2023-01-10T01:19:50;13.55;;;5.70;;
30635;SDS011;17400;52.392;9.750;2023-01-10T01:22:18;11.85;;;6.65;;
30635;SDS011;17400;52.392;9.750;2023-01-10T01:24:46;13.13;;;8.02;;
30635;SDS011;17400;52.392;9.750;2023-01-10T01:27:13;12.00;;;5.97;;
30635;SDS011;17400;52.392;9.750;2023-01-10T01:29:42;10.43;;;5.40;;
30635;SDS011;17400;52.392;9.750;2023-01-10T01:32:10;18.58;;;7.47;;
30635;SDS011;17400;52.392;9.750;2023-01-10T01:34:38;12.38;;;5.80;;
30635;SDS011;17400;52.392;9.750;2023-01-10T01:37:06;9.10;;;5.18;;
30635;SDS011;17400;52.392;9.750;2023-01-10T01:39:34;14.68;;;6.45;;
30635;SDS011;17400;52.392;9.750;2023-01-10T01:42:03;9.40;;;5.97;;
30635;SDS011;17400;52.392;9.750;2023-01-10T01:44:31;15.45;;;5.55;;
30635;SDS011;17400;52.392;9.750;2023-01-10T01:47:04;9.95;;;6.53;;
30635;SDS011;17400;52.392;9.750;2023-01-10T01:49:34;13.15;;;6.80;;
30635;SDS011;17400;52.392;9.750;2023-01-10T01:52:06;11.40;;;5.63;;
30635;SDS011;17400;52.392;9.750;2023-01-10T01:54:37;10.60;;;5.80;;
30635;SDS011;17400;52.392;9.750;2023-01-10T01:57:06;10.27;;;5.63;;
30635;SDS011;17400;52.392;9.750;2023-01-10T01:59:39;9.68;;;6.05;;
30635;SDS011;17400;52.392;9.750;2023-01-10T02:02:12;15.18;;;5.72;;
30635;SDS011;17400;52.392;9.750;2023-01-10T02:04:46;10.63;;;6.28;;
30635;SDS011;17400;52.392;9.750;2023-01-10T02:07:17;15.93;;;5.78;;
30635;SDS011;17400;52.392;9.750;2023-01-10T02:09:46;12.43;;;6.13;;
30635;SDS011;17400;52.392;9.750;2023-01-10T02:12:17;11.93;;;5.50;;
30635;SDS011;17400;52.392;9.750;2023-01-10T02:14:45;11.55;;;6.50;;
30635;SDS011;17400;52.392;9.750;2023-01-10T02:17:18;10.25;;;5.47;;
30635;SDS011;17400;52.392;9.750;2023-01-10T02:19:48;12.02;;;5.65;;
30635;SDS011;17400;52.392;9.750;2023-01-10T02:22:40;14.20;;;6.13;;
30635;SDS011;17400;52.392;9.750;2023-01-10T02:25:49;7.88;;;4.88;;
30635;SDS011;17400;52.392;9.750;2023-01-10T02:28:46;11.98;;;5.30;;
30635;SDS011;17400;52.392;9.750;2023-01-10T02:31:36;10.52;;;5.38;;
30635;SDS011;17400;52.392;9.750;2023-01-10T02:34:32;11.98;;;5.60;;
30635;SDS011;17400;52.392;9.750;2023-01-10T02:37:07;7.95;;;5.13;;
30635;SDS011;17400;52.392;9.750;2023-01-10T02:39:52;9.85;;;4.70;;
30635;SDS011;17400;52.392;9.750;2023-01-10T02:42:26;8.63;;;3.92;;
30635;SDS011;17400;52.392;9.750;2023-01-10T02:44:59;13.60;;;5.18;;
30635;SDS011;17400;52.392;9.750;2023-01-10T02:47:34;7.03;;;4.32;;
30635;SDS011;17400;52.392;9.750;2023-01-10T02:52:54;8.95;;;4.63;;
30635;SDS011;17400;52.392;9.750;2023-01-10T02:55:27;9.27;;;5.43;;
30635;SDS011;17400;52.392;9.750;2023-01-10T02:58:04;7.55;;;4.00;;
30635;SDS011;17400;52.392;9.750;2023-01-10T03:00:43;9.10;;;4.32;;
30635;SDS011;17400;52.392;9.750;2023-01-10T03:03:22;7.13;;;3.45;;
30635;SDS011;17400;52.392;9.750;2023-01-10T03:06:04;5.20;;;3.42;;
30635;SDS011;17400;52.392;9.750;2023-01-10T03:08:44;11.25;;;4.28;;
30635;SDS011;17400;52.392;9.750;2023-01-10T03:11:16;10.68;;;3.22;;
30635;SDS011;17400;52.392;9.750;2023-01-10T03:14:05;7.32;;;2.70;;
30635;SDS011;17400;52.392;9.750;2023-01-10T03:16:37;7.88;;;2.88;;
30635;SDS011;17400;52.392;9.750;2023-01-10T03:19:09;11.15;;;3.53;;
30635;SDS011;17400;52.392;9.750;2023-01-10T03:21:41;9.30;;;3.72;;
30635;SDS011;17400;52.392;9.750;2023-01-10T03:24:11;4.32;;;2.70;;
30635;SDS011;17400;52.392;9.750;2023-01-10T03:26:44;6.43;;;3.15;;
30635;SDS011;17400;52.392;9.750;2023-01-10T03:29:18;6.25;;;3.30;;
30635;SDS011;17400;52.392;9.750;2023-01-10T03:31:52;6.28;;;2.70;;
30635;SDS011;17400;52.392;9.750;2023-01-10T03:34:23;13.73;;;4.95;;
30635;SDS011;17400;52.392;9.750;2023-01-10T03:36:55;6.05;;;3.35;;
30635;SDS011;17400;52.392;9.750;2023-01-10T03:39:30;6.32;;;3.17;;
30635;SDS011;17400;52.392;9.750;2023-01-10T03:42:01;4.63;;;2.95;;
30635;SDS011;17400;52.392;9.750;2023-01-10T03:44:37;8.43;;;2.80;;
30635;SDS011;17400;52.392;9.750;2023-01-10T03:47:10;8.32;;;3.10;;
30635;SDS011;17400;52.392;9.750;2023-01-10T03:49:43;5.43;;;3.45;;
30635;SDS011;17400;52.392;9.750;2023-01-10T03:52:16;4.57;;;2.70;;
30635;SDS011;17400;52.392;9.750;2023-01-10T03:54:46;7.15;;;3.10;;
30635;SDS011;17400;52.392;9.750;2023-01-10T03:57:14;6.28;;;2.40;;
30635;SDS011;17400;52.392;9.750;2023-01-10T03:59:43;4.75;;;2.70;;
30635;SDS011;17400;52.392;9.750;2023-01-10T04:02:12;4.65;;;2.55;;
30635;SDS011;17400;52.392;9.750;2023-01-10T04:04:40;4.20;;;2.17;;
30635;SDS011;17400;52.392;9.750;2023-01-10T04:07:07;5.13;;;2.58;;
30635;SDS011;17400;52.392;9.750;2023-01-10T04:09:36;5.43;;;2.45;;
30635;SDS011;17400;52.392;9.750;2023-01-10T04:12:04;7.18;;;2.83;;
30635;SDS011;17400;52.392;9.750;2023-01-10T04:14:32;5.43;;;2.28;;
30635;SDS011;17400;52.392;9.750;2023-01-10T04:16:59;3.63;;;2.20;;
30635;SDS011;17400;52.392;9.750;2023-01-10T04:19:27;6.72;;;2.05;;
30635;SDS011;17400;52.392;9.750;2023-01-10T04:21:55;7.60;;;3.08;;
30635;SDS011;17400;52.392;9.750;2023-01-10T04:24:22;3.95;;;2.78;;
30635;SDS011;17400;52.392;9.750;2023-01-10T04:26:51;7.07;;;2.78;;
30635;SDS011;17400;52.392;9.750;2023-01-10T04:29:19;9.30;;;2.35;;
30635;SDS011;17400;52.392;9.750;2023-01-10T04:31:46;4.90;;;2.75;;
30635;SDS011;17400;52.392;9.750;2023-01-10T04:34:14;5.93;;;3.00;;
30635;SDS011;17400;52.392;9.750;2023-01-10T04:36:45;6.85;;;2.70;;
30635;SDS011;17400;52.392;9.750;2023-01-10T04:39:16;4.63;;;2.45;;
30635;SDS011;17400;52.392;9.750;2023-01-10T04:41:43;7.70;;;3.38;;
30635;SDS011;17400;52.392;9.750;2023-01-10T04:44:12;10.75;;;2.92;;
30635;SDS011;17400;52.392;9.750;2023-01-10T04:46:40;6.53;;;2.50;;
30635;SDS011;17400;52.392;9.750;2023-01-10T04:49:07;6.05;;;2.67;;
30635;SDS011;17400;52.392;9.750;2023-01-10T04:51:35;6.85;;;2.95;;
30635;SDS011;17400;52.392;9.750;2023-01-10T04:54:03;12.60;;;3.95;;
30635;SDS011;17400;52.392;9.750;2023-01-10T04:56:31;5.50;;;2.70;;
30635;SDS011;17400;52.392;9.750;2023-01-10T04:58:58;8.73;;;2.88;;
30635;SDS011;17400;52.392;9.750;2023-01-10T05:01:28;4.55;;;2.90;;
30635;SDS011;17400;52.392;9.750;2023-01-10T05:03:55;5.85;;;3.10;;
30635;SDS011;17400;52.392;9.750;2023-01-10T05:06:23;8.15;;;2.85;;
30635;SDS011;17400;52.392;9.750;2023-01-10T05:08:51;9.88;;;4.47;;
30635;SDS011;17400;52.392;9.750;2023-01-10T05:11:18;5.70;;;2.97;;
30635;SDS011;17400;52.392;9.750;2023-01-10T05:13:47;11.30;;;3.75;;
30635;SDS011;17400;52.392;9.750;2023-01-10T05:16:15;6.78;;;2.97;;
30635;SDS011;17400;52.392;9.750;2023-01-10T05:18:44;4.70;;;3.15;;
30635;SDS011;17400;52.392;9.750;2023-01-10T05:21:12;8.40;;;3.28;;
30635;SDS011;17400;52.392;9.750;2023-01-10T05:23:40;8.43;;;3.28;;
30635;SDS011;17400;52.392;9.750;2023-01-10T05:26:08;9.23;;;2.97;;
30635;SDS011;17400;52.392;9.750;2023-01-10T05:28:38;5.82;;;2.90;;
30635;SDS011;17400;52.392;9.750;2023-01-10T05:31:06;5.88;;;2.72;;
30635;SDS011;17400;52.392;9.750;2023-01-10T05:33:35;7.25;;;3.10;;
30635;SDS011;17400;52.392;9.750;2023-01-10T05:36:04;7.55;;;3.00;;
30635;SDS011;17400;52.392;9.750;2023-01-10T05:38:33;5.68;;;3.00;;
30635;SDS011;17400;52.392;9.750;2023-01-10T05:41:00;4.75;;;2.80;;
30635;SDS011;17400;52.392;9.750;2023-01-10T05:43:28;14.10;;;3.63;;
30635;SDS011;17400;52.392;9.750;2023-01-10T05:45:55;6.22;;;2.13;;
30635;SDS011;17400;52.392;9.750;2023-01-10T05:48:23;6.53;;;2.25;;
30635;SDS011;17400;52.392;9.750;2023-01-10T05:50:51;4.57;;;1.63;;
30635;SDS011;17400;52.392;9.750;2023-01-10T05:53:21;13.00;;;2.95;;
30635;SDS011;17400;52.392;9.750;2023-01-10T05:55:52;8.48;;;4.82;;
30635;SDS011;17400;52.392;9.750;2023-01-10T05:58:21;9.75;;;3.38;;
30635;SDS011;17400;52.392;9.750;2023-01-10T06:00:49;6.88;;;3.83;;
30635;SDS011;17400;52.392;9.750;2023-01-10T06:03:18;7.07;;;4.13;;
30635;SDS011;17400;52.392;9.750;2023-01-10T06:05:45;20.15;;;10.23;;
30635;SDS011;17400;52.392;9.750;2023-01-10T06:08:14;18.83;;;9.27;;
30635;SDS011;17400;52.392;9.750;2023-01-10T06:10:43;9.20;;;4.60;;
30635;SDS011;17400;52.392;9.750;2023-01-10T06:13:11;9.45;;;4.50;;
30635;SDS011;17400;52.392;9.750;2023-01-10T06:15:39;8.57;;;4.10;;
30635;SDS011;17400;52.392;9.750;2023-01-10T06:18:06;6.22;;;2.88;;
30635;SDS011;17400;52.392;9.750;2023-01-10T06:20:37;5.13;;;2.75;;
30635;SDS011;17400;52.392;9.750;2023-01-10T06:23:05;11.10;;;2.88;;
30635;SDS011;17400;52.392;9.750;2023-01-10T06:25:34;16.30;;;3.72;;
30635;SDS011;17400;52.392;9.750;2023-01-10T06:28:07;8.10;;;2.70;;
30635;SDS011;17400;52.392;9.750;2023-01-10T06:30:34;9.38;;;2.97;;
30635;SDS011;17400;52.392;9.750;2023-01-10T06:33:03;9.00;;;2.80;;
30635;SDS011;17400;52.392;9.750;2023-01-10T06:35:32;10.10;;;3.80;;
30635;SDS011;17400;52.392;9.750;2023-01-10T06:38:01;7.82;;;3.30;;
30635;SDS011;17400;52.392;9.750;2023-01-10T06:40:28;6.15;;;3.38;;
30635;SDS011;17400;52.392;9.750;2023-01-10T06:42:56;8.52;;;3.78;;
30635;SDS011;17400;52.392;9.750;2023-01-10T06:45:25;6.10;;;2.95;;
30635;SDS011;17400;52.392;9.750;2023-01-10T06:47:53;7.60;;;3.00;;
30635;SDS011;17400;52.392;9.750;2023-01-10T06:50:21;11.18;;;3.65;;
30635;SDS011;17400;52.392;9.750;2023-01-10T06:52:53;9.95;;;3.85;;
30635;SDS011;17400;52.392;9.750;2023-01-10T06:55:22;9.75;;;3.38;;
30635;SDS011;17400;52.392;9.750;2023-01-10T06:57:54;13.55;;;4.72;;
30635;SDS011;17400;52.392;9.750;2023-01-10T07:00:23;10.07;;;4.30;;
30635;SDS011;17400;52.392;9.750;2023-01-10T07:02:53;5.50;;;3.33;;
30635;SDS011;17400;52.392;9.750;2023-01-10T07:05:22;8.77;;;4.38;;
30635;SDS011;17400;52.392;9.750;2023-01-10T07:07:51;6.57;;;2.78;;
30635;SDS011;17400;52.392;9.750;2023-01-10T07:10:20;8.25;;;4.03;;
30635;SDS011;17400;52.392;9.750;2023-01-10T07:12:47;9.73;;;4.03;;
30635;SDS011;17400;52.392;9.750;2023-01-10T07:15:15;6.40;;;3.80;;
30635;SDS011;17400;52.392;9.750;2023-01-10T07:17:43;8.60;;;4.55;;
30635;SDS011;17400;52.392;9.750;2023-01-10T07:20:12;8.25;;;4.80;;
30635;SDS011;17400;52.392;9.750;2023-01-10T07:22:39;8.90;;;3.50;;
30635;SDS011;17400;52.392;9.750;2023-01-10T07:25:07;11.23;;;4.97;;
30635;SDS011;17400;52.392;9.750;2023-01-10T07:27:35;7.78;;;4.65;;
30635;SDS011;17400;52.392;9.750;2023-01-10T07:30:05;8.70;;;4.32;;
30635;SDS011;17400;52.392;9.750;2023-01-10T07:32:34;9.23;;;3.60;;
30635;SDS011;17400;52.392;9.750;2023-01-10T07:35:02;10.02;;;5.43;;
30635;SDS011;17400;52.392;9.750;2023-01-10T07:37:31;14.85;;;3.78;;
30635;SDS011;17400;52.392;9.750;2023-01-10T07:39:59;8.50;;;3.80;;
30635;SDS011;17400;52.392;9.750;2023-01-10T07:42:27;11.85;;;5.22;;
30635;SDS011;17400;52.392;9.750;2023-01-10T07:44:54;10.90;;;4.65;;
30635;SDS011;17400;52.392;9.750;2023-01-10T07:47:22;13.57;;;5.85;;
30635;SDS011;17400;52.392;9.750;2023-01-10T07:49:50;7.57;;;4.28;;
30635;SDS011;17400;52.392;9.750;2023-01-10T07:52:17;13.55;;;5.95;;
30635;SDS011;17400;52.392;9.750;2023-01-10T07:54:46;10.73;;;5.18;;
30635;SDS011;17400;52.392;9.750;2023-01-10T07:57:14;9.77;;;5.90;;
30635;SDS011;17400;52.392;9.750;2023-01-10T07:59:42;11.10;;;4.80;;
30635;SDS011;17400;52.392;9.750;2023-01-10T08:02:10;15.43;;;4.85;;
30635;SDS011;17400;52.392;9.750;2023-01-10T08:04:38;10.65;;;5.55;;
30635;SDS011;17400;52.392;9.750;2023-01-10T08:07:05;8.23;;;4.85;;
30635;SDS011;17400;52.392;9.750;2023-01-10T08:09:33;11.55;;;5.82;;
30635;SDS011;17400;52.392;9.750;2023-01-10T08:12:02;10.40;;;5.10;;
30635;SDS011;17400;52.392;9.750;2023-01-10T08:14:30;10.77;;;4.47;;
30635;SDS011;17400;52.392;9.750;2023-01-10T08:16:58;12.00;;;5.65;;
30635;SDS011;17400;52.392;9.750;2023-01-10T08:19:26;7.68;;;4.90;;
30635;SDS011;17400;52.392;9.750;2023-01-10T08:21:54;6.80;;;3.53;;
30635;SDS011;17400;52.392;9.750;2023-01-10T08:24:22;13.25;;;5.07;;
30635;SDS011;17400;52.392;9.750;2023-01-10T08:26:49;11.88;;;5.22;;
30635;SDS011;17400;52.392;9.750;2023-01-10T08:29:18;10.05;;;5.10;;
30635;SDS011;17400;52.392;9.750;2023-01-10T08:31:46;9.13;;;4.55;;
30635;SDS011;17400;52.392;9.750;2023-01-10T08:34:13;12.48;;;5.70;;
30635;SDS011;17400;52.392;9.750;2023-01-10T08:36:41;12.88;;;4.80;;
30635;SDS011;17400;52.392;9.750;2023-01-10T08:39:09;8.07;;;4.20;;
30635;SDS011;17400;52.392;9.750;2023-01-10T08:41:37;8.88;;;4.60;;
30635;SDS011;17400;52.392;9.750;2023-01-10T08:44:07;16.02;;;5.60;;
30635;SDS011;17400;52.392;9.750;2023-01-10T08:46:38;9.07;;;5.68;;
30635;SDS011;17400;52.392;9.750;2023-01-10T08:49:06;8.90;;;5.30;;
30635;SDS011;17400;52.392;9.750;2023-01-10T08:51:34;14.60;;;5.70;;
30635;SDS011;17400;52.392;9.750;2023-01-10T08:54:02;12.77;;;5.53;;
30635;SDS011;17400;52.392;9.750;2023-01-10T08:56:30;8.00;;;4.18;;
30635;SDS011;17400;52.392;9.750;2023-01-10T08:58:58;8.85;;;5.55;;
30635;SDS011;17400;52.392;9.750;2023-01-10T09:01:26;7.55;;;5.00;;
30635;SDS011;17400;52.392;9.750;2023-01-10T09:03:55;10.90;;;5.68;;
30635;SDS011;17400;52.392;9.750;2023-01-10T09:06:23;12.60;;;6.45;;
30635;SDS011;17400;52.392;9.750;2023-01-10T09:08:51;12.70;;;5.93;;
30635;SDS011;17400;52.392;9.750;2023-01-10T09:11:18;15.02;;;5.47;;
30635;SDS011;17400;52.392;9.750;2023-01-10T09:13:47;9.25;;;4.82;;
30635;SDS011;17400;52.392;9.750;2023-01-10T09:16:15;13.60;;;5.80;;
30635;SDS011;17400;52.392;9.750;2023-01-10T09:18:43;7.65;;;4.43;;
30635;SDS011;17400;52.392;9.750;2023-01-10T09:21:12;10.18;;;5.15;;
30635;SDS011;17400;52.392;9.750;2023-01-10T09:23:40;10.05;;;6.10;;
30635;SDS011;17400;52.392;9.750;2023-01-10T09:26:08;16.45;;;5.47;;
30635;SDS011;17400;52.392;9.750;2023-01-10T09:28:36;12.82;;;5.55;;
30635;SDS011;17400;52.392;9.750;2023-01-10T09:31:05;12.25;;;6.18;;
30635;SDS011;17400;52.392;9.750;2023-01-10T09:33:34;14.60;;;6.03;;
30635;SDS011;17400;52.392;9.750;2023-01-10T09:36:13;9.30;;;4.43;;
30635;SDS011;17400;52.392;9.750;2023-01-10T09:38:41;13.80;;;7.18;;
30635;SDS011;17400;52.392;9.750;2023-01-10T09:44:14;11.05;;;5.95;;
30635;SDS011;17400;52.392;9.750;2023-01-10T09:46:49;15.60;;;6.88;;
30635;SDS011;17400;52.392;9.750;2023-01-10T09:49:38;18.13;;;6.82;;
30635;SDS011;17400;52.392;9.750;2023-01-10T09:52:18;12.70;;;4.85;;
30635;SDS011;17400;52.392;9.750;2023-01-10T09:54:49;9.57;;;5.72;;
30635;SDS011;17400;52.392;9.750;2023-01-10T09:57:20;9.70;;;6.40;;
30635;SDS011;17400;52.392;9.750;2023-01-10T09:59:48;11.80;;;7.45;;
30635;SDS011;17400;52.392;9.750;2023-01-10T10:02:22;12.38;;;6.63;;
30635;SDS011;17400;52.392;9.750;2023-01-10T10:04:58;16.33;;;7.40;;
30635;SDS011;17400;52.392;9.750;2023-01-10T10:07:36;17.13;;;7.18;;
30635;SDS011;17400;52.392;9.750;2023-01-10T10:10:04;11.07;;;4.90;;
30635;SDS011;17400;52.392;9.750;2023-01-10T10:12:36;20.48;;;8.23;;
30635;SDS011;17400;52.392;9.750;2023-01-10T10:15:12;13.23;;;7.32;;
30635;SDS011;17400;52.392;9.750;2023-01-10T10:17:48;9.63;;;6.68;;
30635;SDS011;17400;52.392;9.750;2023-01-10T10:20:29;16.55;;;6.85;;
30635;SDS011;17400;52.392;9.750;2023-01-10T10:23:10;14.73;;;6.55;;
30635;SDS011;17400;52.392;9.750;2023-01-10T10:25:51;18.10;;;7.80;;
30635;SDS011;17400;52.392;9.750;2023-01-10T10:28:38;15.68;;;6.47;;
30635;SDS011;17400;52.392;9.750;2023-01-10T10:31:31;15.13;;;7.95;;
30635;SDS011;17400;52.392;9.750;2023-01-10T10:34:17;18.55;;;10.50;;
30635;SDS011;17400;52.392;9.750;2023-01-10T10:36:51;13.02;;;6.00;;
30635;SDS011;17400;52.392;9.750;2023-01-10T10:39:27;15.20;;;9.10;;
30635;SDS011;17400;52.392;9.750;2023-01-10T10:42:00;12.75;;;6.55;;
30635;SDS011;17400;52.392;9.750;2023-01-10T10:44:31;12.10;;;6.72;;
30635;SDS011;17400;52.392;9.750;2023-01-10T10:47:09;16.70;;;9.45;;
30635;SDS011;17400;52.392;9.750;2023-01-10T10:49:42;18.85;;;9.70;;
30635;SDS011;17400;52.392;9.750;2023-01-10T10:52:14;11.73;;;7.20;;
30635;SDS011;17400;52.392;9.750;2023-01-10T10:54:49;10.65;;;5.45;;
30635;SDS011;17400;52.392;9.750;2023-01-10T10:57:18;14.63;;;8.57;;
30635;SDS011;17400;52.392;9.750;2023-01-10T10:59:50;10.52;;;5.55;;
30635;SDS011;17400;52.392;9.750;2023-01-10T11:02:20;8.07;;;5.72;;
30635;SDS011;17400;52.392;9.750;2023-01-10T11:04:51;16.52;;;6.22;;
30635;SDS011;17400;52.392;9.750;2023-01-10T11:07:21;14.52;;;5.32;;
30635;SDS011;17400;52.392;9.750;2023-01-10T11:09:52;18.90;;;7.70;;
30635;SDS011;17400;52.392;9.750;2023-01-10T11:12:28;20.38;;;7.70;;
30635;SDS011;17400;52.392;9.750;2023-01-10T11:15:01;13.43;;;6.35;;
30635;SDS011;17400;52.392;9.750;2023-01-10T11:17:30;16.00;;;6.45;;
30635;SDS011;17400;52.392;9.750;2023-01-10T11:19:59;10.45;;;6.70;;
30635;SDS011;17400;52.392;9.750;2023-01-10T11:22:30;9.88;;;6.18;;
30635;SDS011;17400;52.392;9.750;2023-01-10T11:25:12;11.02;;;6.68;;
30635;SDS011;17400;52.392;9.750;2023-01-10T11:27:45;12.18;;;5.97;;
30635;SDS011;17400;52.392;9.750;2023-01-10T11:30:16;5.15;;;2.97;;
30635;SDS011;17400;52.392;9.750;2023-01-10T11:32:48;11.35;;;5.55;;
30635;SDS011;17400;52.392;9.750;2023-01-10T11:35:19;12.88;;;5.38;;
30635;SDS011;17400;52.392;9.750;2023-01-10T11:37:57;11.45;;;5.15;;
30635;SDS011;17400;52.392;9.750;2023-01-10T11:40:27;11.90;;;5.63;;
30635;SDS011;17400;52.392;9.750;2023-01-10T11:42:56;12.15;;;7.03;;
30635;SDS011;17400;52.392;9.750;2023-01-10T11:45:27;16.80;;;8.52;;
30635;SDS011;17400;52.392;9.750;2023-01-10T11:48:00;18.15;;;8.00;;
30635;SDS011;17400;52.392;9.750;2023-01-10T11:50:34;15.75;;;6.38;;
30635;SDS011;17400;52.392;9.750;2023-01-10T11:53:04;10.60;;;6.38;;
30635;SDS011;17400;52.392;9.750;2023-01-10T11:55:35;9.70;;;6.28;;
30635;SDS011;17400;52.392;9.750;2023-01-10T11:58:06;10.02;;;7.25;;
30635;SDS011;17400;52.392;9.750;2023-01-10T12:00:39;14.48;;;5.80;;
30635;SDS011;17400;52.392;9.750;2023-01-10T12:03:16;17.25;;;8.48;;
30635;SDS011;17400;52.392;9.750;2023-01-10T12:05:51;11.82;;;7.40;;
30635;SDS011;17400;52.392;9.750;2023-01-10T12:08:24;17.77;;;6.30;;
30635;SDS011;17400;52.392;9.750;2023-01-10T12:10:59;25.33;;;9.40;;
30635;SDS011;17400;52.392;9.750;2023-01-10T12:13:30;12.02;;;7.15;;
30635;SDS011;17400;52.392;9.750;2023-01-10T12:16:13;14.20;;;7.30;;
30635;SDS011;17400;52.392;9.750;2023-01-10T12:18:42;24.95;;;7.18;;
30635;SDS011;17400;52.392;9.750;2023-01-10T12:21:10;9.27;;;5.80;;
30635;SDS011;17400;52.392;9.750;2023-01-10T12:23:41;15.00;;;6.28;;
30635;SDS011;17400;52.392;9.750;2023-01-10T12:26:12;18.63;;;6.95;;
30635;SDS011;17400;52.392;9.750;2023-01-10T12:28:41;16.65;;;7.35;;
30635;SDS011;17400;52.392;9.750;2023-01-10T12:31:14;8.70;;;4.85;;
30635;SDS011;17400;52.392;9.750;2023-01-10T12:33:43;15.38;;;6.70;;
30635;SDS011;17400;52.392;9.750;2023-01-10T12:36:15;20.75;;;5.78;;
30635;SDS011;17400;52.392;9.750;2023-01-10T12:38:56;10.68;;;5.63;;
30635;SDS011;17400;52.392;9.750;2023-01-10T12:41:33;12.65;;;6.07;;
30635;SDS011;17400;52.392;9.750;2023-01-10T12:44:24;13.27;;;5.82;;
30635;SDS011;17400;52.392;9.750;2023-01-10T12:46:59;16.73;;;6.43;;
30635;SDS011;17400;52.392;9.750;2023-01-10T12:49:39;11.68;;;6.53;;
30635;SDS011;17400;52.392;9.750;2023-01-10T12:52:13;11.85;;;6.22;;
30635;SDS011;17400;52.392;9.750;2023-01-10T12:54:48;4.38;;;3.08;;
30635;SDS011;17400;52.392;9.750;2023-01-10T12:57:21;14.40;;;7.40;;
30635;SDS011;17400;52.392;9.750;2023-01-10T12:59:53;13.93;;;5.47;;
30635;SDS011;17400;52.392;9.750;2023-01-10T13:02:24;11.40;;;6.30;;
30635;SDS011;17400;52.392;9.750;2023-01-10T13:04:57;10.20;;;4.70;;
30635;SDS011;17400;52.392;9.750;2023-01-10T13:07:28;13.38;;;3.55;;
30635;SDS011;17400;52.392;9.750;2023-01-10T13:10:00;10.27;;;4.72;;
30635;SDS011;17400;52.392;9.750;2023-01-10T13:12:32;8.88;;;4.28;;
30635;SDS011;17400;52.392;9.750;2023-01-10T13:15:05;6.28;;;3.10;;
30635;SDS011;17400;52.392;9.750;2023-01-10T13:17:38;8.05;;;3.08;;
30635;SDS011;17400;52.392;9.750;2023-01-10T13:20:29;16.15;;;5.13;;
30635;SDS011;17400;52.392;9.750;2023-01-10T13:23:24;10.93;;;3.45;;
30635;SDS011;17400;52.392;9.750;2023-01-10T13:25:57;5.68;;;2.90;;
30635;SDS011;17400;52.392;9.750;2023-01-10T13:28:29;7.65;;;3.78;;
30635;SDS011;17400;52.392;9.750;2023-01-10T13:31:00;6.00;;;2.70;;
30635;SDS011;17400;52.392;9.750;2023-01-10T13:33:32;19.60;;;4.07;;
30635;SDS011;17400;52.392;9.750;2023-01-10T13:36:07;8.50;;;3.85;;
30635;SDS011;17400;52.392;9.750;2023-01-10T13:38:47;10.95;;;3.55;;
30635;SDS011;17400;52.392;9.750;2023-01-10T13:41:18;11.93;;;3.72;;
30635;SDS011;17400;52.392;9.750;2023-01-10T13:44:07;13.68;;;4.25;;
30635;SDS011;17400;52.392;9.750;2023-01-10T13:46:41;9.82;;;4.28;;
30635;SDS011;17400;52.392;9.750;2023-01-10T13:49:25;9.98;;;3.28;;
30635;SDS011;17400;52.392;9.750;2023-01-10T13:52:28;13.30;;;4.60;;
30635;SDS011;17400;52.392;9.750;2023-01-10T13:54:59;7.25;;;4.93;;
30635;SDS011;17400;52.392;9.750;2023-01-10T14:03:45;7.90;;;3.53;;
30635;SDS011;17400;52.392;9.750;2023-01-10T14:06:29;12.15;;;3.60;;
30635;SDS011;17400;52.392;9.750;2023-01-10T14:09:04;8.43;;;4.50;;
30635;SDS011;17400;52.392;9.750;2023-01-10T14:11:56;7.20;;;3.80;;
30635;SDS011;17400;52.392;9.750;2023-01-10T14:14:26;7.35;;;4.05;;
30635;SDS011;17400;52.392;9.750;2023-01-10T14:17:09;6.65;;;2.97;;
30635;SDS011;17400;52.392;9.750;2023-01-10T14:19:41;10.20;;;4.00;;
30635;SDS011;17400;52.392;9.750;2023-01-10T14:22:22;7.75;;;3.20;;
30635;SDS011;17400;52.392;9.750;2023-01-10T14:24:53;11.25;;;3.83;;
30635;SDS011;17400;52.392;9.750;2023-01-10T14:27:21;10.55;;;4.28;;
30635;SDS011;17400;52.392;9.750;2023-01-10T14:29:51;9.68;;;2.40;;
30635;SDS011;17400;52.392;9.750;2023-01-10T14:32:29;9.77;;;3.50;;
30635;SDS011;17400;52.392;9.750;2023-01-10T14:35:06;10.48;;;4.38;;
30635;SDS011;17400;52.392;9.750;2023-01-10T14:37:38;8.38;;;3.22;;
30635;SDS011;17400;52.392;9.750;2023-01-10T14:40:14;8.55;;;4.22;;
30635;SDS011;17400;52.392;9.750;2023-01-10T14:42:47;7.55;;;4.10;;
30635;SDS011;17400;52.392;9.750;2023-01-10T14:45:19;8.93;;;4.40;;
30635;SDS011;17400;52.392;9.750;2023-01-10T14:47:58;10.13;;;3.50;;
30635;SDS011;17400;52.392;9.750;2023-01-10T14:50:27;18.13;;;4.25;;
30635;SDS011;17400;52.392;9.750;2023-01-10T14:52:58;7.68;;;4.25;;
30635;SDS011;17400;52.392;9.750;2023-01-10T14:55:26;7.38;;;3.88;;
30635;SDS011;17400;52.392;9.750;2023-01-10T14:57:55;6.90;;;2.05;;
30635;SDS011;17400;52.392;9.750;2023-01-10T15:00:26;11.20;;;3.67;;
30635;SDS011;17400;52.392;9.750;2023-01-10T15:02:57;12.80;;;4.70;;
30635;SDS011;17400;52.392;9.750;2023-01-10T15:05:30;7.93;;;3.35;;
30635;SDS011;17400;52.392;9.750;2023-01-10T15:08:14;16.25;;;4.70;;
30635;SDS011;17400;52.392;9.750;2023-01-10T15:10:44;7.85;;;4.68;;
30635;SDS011;17400;52.392;9.750;2023-01-10T15:13:14;8.68;;;3.78;;
30635;SDS011;17400;52.392;9.750;2023-01-10T15:15:45;7.65;;;3.58;;
30635;SDS011;17400;52.392;9.750;2023-01-10T15:18:24;6.13;;;2.15;;